sensor_id;sensor_type;location;lat;lon;timestamp;noise_LAeq;noise_LA_min;noise_LA_max;noise_LA01;noise_LA95
69616;Laerm;56822;52.516;4.708;2022-07-30T00:00:04;33.96;30.70;39.54;;
69616;Laerm;56822;52.516;4.708;2022-07-30T00:00:15;33.37;30.74;36.89;;
69616;Laerm;56822;52.516;4.708;2022-07-30T00:00:26;33.67;30.03;39.89;;
69616;Laerm;56822;52.516;4.708;2022-07-30T00:00:36;32.19;29.79;37.51;;
69616;Laerm;56822;52.516;4.708;2022-07-30T00:00:46;31.39;29.82;33.51;;
69616;Laerm;56822;52.516;4.708;2022-07-30T00:00:57;32.02;30.32;33.85;;
69616;Laerm;56822;52.516;4.708;2022-07-30T00:01:07;32.57;30.56;34.19;;
69616;Laerm;56822;52.516;4.708;2022-07-30T00:01:17;34.19;30.91;38.77;;
69616;Laerm;56822;52.516;4.708;2022-07-30T00:01:27;35.67;32.08;40.51;;
69616;Laerm;56822;52.516;4.708;2022-07-30T00:01:38;33.91;31.22;36.99;;
69616;Laerm;56822;52.516;4.708;2022-07-30T00:01:49;32.74;30.70;34.76;;
69616;Laerm;56822;52.516;4.708;2022-07-30T00:01:59;32.06;30.12;34.96;;
69616;Laerm;56822;52.516;4.708;2022-07-30T00:02:09;35.59;31.53;39.16;;
69616;Laerm;56822;52.516;4.708;2022-07-30T00:02:19;35.35;32.78;37.85;;
69616;Laerm;56822;52.516;4.708;2022-07-30T00:02:30;33.67;30.19;38.23;;
69616;Laerm;56822;52.516;4.708;2022-07-30T00:02:40;32.83;30.00;36.44;;
69616;Laerm;56822;52.516;4.708;2022-07-30T00:02:51;34.51;30.75;39.01;;
69616;Laerm;56822;52.516;4.708;2022-07-30T00:03:01;34.25;30.94;37.83;;
69616;Laerm;56822;52.516;4.708;2022-07-30T00:03:12;34.40;30.60;38.35;;
69616;Laerm;56822;52.516;4.708;2022-07-30T00:03:22;33.35;30.01;38.05;;
69616;Laerm;56822;52.516;4.708;2022-07-30T00:03:32;34.02;29.73;38.79;;
69616;Laerm;56822;52.516;4.708;2022-07-30T00:03:43;35.13;32.62;37.85;;
69616;Laerm;56822;52.516;4.708;2022-07-30T00:03:53;35.98;32.89;47.07;;
69616;Laerm;56822;52.516;4.708;2022-07-30T00:04:03;35.89;32.87;39.44;;
69616;Laerm;56822;52.516;4.708;2022-07-30T00:04:13;34.88;32.56;37.44;;
69616;Laerm;56822;52.516;4.708;2022-07-30T00:04:24;35.93;32.27;40.21;;
69616;Laerm;56822;52.516;4.708;2022-07-30T00:04:34;34.75;31.38;39.69;;
69616;Laerm;56822;52.516;4.708;2022-07-30T00:04:45;34.60;32.14;37.52;;
69616;Laerm;56822;52.516;4.708;2022-07-30T00:04:55;33.50;30.68;36.60;;
69616;Laerm;56822;52.516;4.708;2022-07-30T00:05:05;33.77;31.08;37.10;;
69616;Laerm;56822;52.516;4.708;2022-07-30T00:05:16;34.63;31.15;38.88;;
69616;Laerm;56822;52.516;4.708;2022-07-30T00:05:26;36.64;32.91;39.59;;
69616;Laerm;56822;52.516;4.708;2022-07-30T00:05:36;36.21;33.32;38.29;;
69616;Laerm;56822;52.516;4.708;2022-07-30T00:05:47;37.16;32.66;41.06;;
69616;Laerm;56822;52.516;4.708;2022-07-30T00:05:57;37.13;33.04;43.96;;
69616;Laerm;56822;52.516;4.708;2022-07-30T00:06:07;36.33;33.28;38.45;;
69616;Laerm;56822;52.516;4.708;2022-07-30T00:06:18;35.56;33.21;37.67;;
69616;Laerm;56822;52.516;4.708;2022-07-30T00:06:28;36.51;34.08;42.59;;
69616;Laerm;56822;52.516;4.708;2022-07-30T00:06:39;38.65;34.97;42.81;;
69616;Laerm;56822;52.516;4.708;2022-07-30T00:06:49;36.75;33.94;39.19;;
69616;Laerm;56822;52.516;4.708;2022-07-30T00:06:59;38.47;35.82;42.05;;
69616;Laerm;56822;52.516;4.708;2022-07-30T00:07:10;36.83;33.51;39.23;;
69616;Laerm;56822;52.516;4.708;2022-07-30T00:07:20;34.42;32.41;36.53;;
69616;Laerm;56822;52.516;4.708;2022-07-30T00:07:30;35.02;32.33;40.65;;
69616;Laerm;56822;52.516;4.708;2022-07-30T00:07:41;35.18;32.81;38.29;;
69616;Laerm;56822;52.516;4.708;2022-07-30T00:07:51;38.57;33.48;52.62;;
69616;Laerm;56822;52.516;4.708;2022-07-30T00:08:01;34.62;32.36;36.75;;
69616;Laerm;56822;52.516;4.708;2022-07-30T00:08:12;35.06;31.89;43.96;;
69616;Laerm;56822;52.516;4.708;2022-07-30T00:08:22;35.59;32.22;41.33;;
69616;Laerm;56822;52.516;4.708;2022-07-30T00:08:33;34.01;31.49;36.55;;
69616;Laerm;56822;52.516;4.708;2022-07-30T00:08:43;52.06;33.85;66.60;;
69616;Laerm;56822;52.516;4.708;2022-07-30T00:08:53;47.56;32.96;63.61;;
69616;Laerm;56822;52.516;4.708;2022-07-30T00:09:03;34.28;31.36;37.69;;
69616;Laerm;56822;52.516;4.708;2022-07-30T00:09:13;32.23;30.79;33.99;;
69616;Laerm;56822;52.516;4.708;2022-07-30T00:09:24;35.14;33.22;41.17;;
69616;Laerm;56822;52.516;4.708;2022-07-30T00:09:34;36.26;33.96;39.16;;
69616;Laerm;56822;52.516;4.708;2022-07-30T00:09:45;35.18;33.09;39.70;;
69616;Laerm;56822;52.516;4.708;2022-07-30T00:09:55;34.76;32.21;37.19;;
69616;Laerm;56822;52.516;4.708;2022-07-30T00:10:05;34.57;31.87;37.99;;
69616;Laerm;56822;52.516;4.708;2022-07-30T00:10:16;35.56;32.67;37.94;;
69616;Laerm;56822;52.516;4.708;2022-07-30T00:10:26;37.21;34.71;39.52;;
69616;Laerm;56822;52.516;4.708;2022-07-30T00:10:36;39.01;34.58;44.65;;
69616;Laerm;56822;52.516;4.708;2022-07-30T00:10:48;39.82;34.31;45.31;;
69616;Laerm;56822;52.516;4.708;2022-07-30T00:10:58;34.64;32.71;37.40;;
69616;Laerm;56822;52.516;4.708;2022-07-30T00:11:09;34.44;32.61;36.79;;
69616;Laerm;56822;52.516;4.708;2022-07-30T00:11:20;34.14;32.23;36.20;;
69616;Laerm;56822;52.516;4.708;2022-07-30T00:11:31;34.96;32.61;37.25;;
69616;Laerm;56822;52.516;4.708;2022-07-30T00:11:41;35.92;33.48;38.38;;
69616;Laerm;56822;52.516;4.708;2022-07-30T00:11:52;35.35;33.59;36.89;;
69616;Laerm;56822;52.516;4.708;2022-07-30T00:12:03;35.94;32.68;39.82;;
69616;Laerm;56822;52.516;4.708;2022-07-30T00:12:13;39.11;33.35;44.94;;
69616;Laerm;56822;52.516;4.708;2022-07-30T00:12:24;36.00;33.46;39.94;;
69616;Laerm;56822;52.516;4.708;2022-07-30T00:12:34;35.87;32.68;39.47;;
69616;Laerm;56822;52.516;4.708;2022-07-30T00:12:44;32.06;30.22;34.33;;
69616;Laerm;56822;52.516;4.708;2022-07-30T00:12:55;33.15;30.59;35.56;;
69616;Laerm;56822;52.516;4.708;2022-07-30T00:13:06;34.71;31.15;38.40;;
69616;Laerm;56822;52.516;4.708;2022-07-30T00:13:16;34.32;31.71;37.68;;
69616;Laerm;56822;52.516;4.708;2022-07-30T00:13:27;32.63;30.85;35.55;;
69616;Laerm;56822;52.516;4.708;2022-07-30T00:13:37;34.92;32.48;37.81;;
69616;Laerm;56822;52.516;4.708;2022-07-30T00:13:47;34.25;30.97;36.92;;
69616;Laerm;56822;52.516;4.708;2022-07-30T00:13:58;33.69;30.91;38.53;;
69616;Laerm;56822;52.516;4.708;2022-07-30T00:14:08;33.97;32.07;36.03;;
69616;Laerm;56822;52.516;4.708;2022-07-30T00:14:18;34.14;31.90;37.06;;
69616;Laerm;56822;52.516;4.708;2022-07-30T00:14:28;34.95;32.22;37.33;;
69616;Laerm;56822;52.516;4.708;2022-07-30T00:14:39;33.27;30.36;37.19;;
69616;Laerm;56822;52.516;4.708;2022-07-30T00:14:50;33.74;31.23;36.36;;
69616;Laerm;56822;52.516;4.708;2022-07-30T00:15:00;33.43;31.46;35.47;;
69616;Laerm;56822;52.516;4.708;2022-07-30T00:15:10;33.91;32.17;38.42;;
69616;Laerm;56822;52.516;4.708;2022-07-30T00:15:21;35.72;32.85;39.41;;
69616;Laerm;56822;52.516;4.708;2022-07-30T00:15:31;39.90;35.11;47.04;;
69616;Laerm;56822;52.516;4.708;2022-07-30T00:15:41;37.52;34.81;41.01;;
69616;Laerm;56822;52.516;4.708;2022-07-30T00:15:52;36.55;33.50;40.69;;
69616;Laerm;56822;52.516;4.708;2022-07-30T00:16:02;35.40;33.53;38.00;;
69616;Laerm;56822;52.516;4.708;2022-07-30T00:16:12;35.20;32.82;37.61;;
69616;Laerm;56822;52.516;4.708;2022-07-30T00:16:23;34.32;31.73;39.68;;
69616;Laerm;56822;52.516;4.708;2022-07-30T00:16:33;34.57;31.78;37.16;;
69616;Laerm;56822;52.516;4.708;2022-07-30T00:16:43;33.70;31.63;35.50;;
69616;Laerm;56822;52.516;4.708;2022-07-30T00:16:54;33.18;30.39;35.87;;
69616;Laerm;56822;52.516;4.708;2022-07-30T00:17:04;35.28;32.69;38.03;;
69616;Laerm;56822;52.516;4.708;2022-07-30T00:17:14;39.43;35.58;42.62;;
69616;Laerm;56822;52.516;4.708;2022-07-30T00:17:24;39.81;37.22;42.46;;
69616;Laerm;56822;52.516;4.708;2022-07-30T00:17:35;37.26;35.56;39.54;;
69616;Laerm;56822;52.516;4.708;2022-07-30T00:17:45;38.91;35.86;41.90;;
69616;Laerm;56822;52.516;4.708;2022-07-30T00:17:55;36.91;33.81;42.44;;
69616;Laerm;56822;52.516;4.708;2022-07-30T00:18:06;36.40;33.87;41.19;;
69616;Laerm;56822;52.516;4.708;2022-07-30T00:18:16;36.40;32.75;43.31;;
69616;Laerm;56822;52.516;4.708;2022-07-30T00:18:26;35.23;33.02;37.48;;
69616;Laerm;56822;52.516;4.708;2022-07-30T00:18:37;32.84;31.12;35.11;;
69616;Laerm;56822;52.516;4.708;2022-07-30T00:18:47;34.58;31.54;38.99;;
69616;Laerm;56822;52.516;4.708;2022-07-30T00:18:57;35.31;32.66;39.32;;
69616;Laerm;56822;52.516;4.708;2022-07-30T00:19:07;36.78;32.91;40.73;;
69616;Laerm;56822;52.516;4.708;2022-07-30T00:19:19;37.14;34.21;40.17;;
69616;Laerm;56822;52.516;4.708;2022-07-30T00:19:29;35.92;32.62;39.11;;
69616;Laerm;56822;52.516;4.708;2022-07-30T00:19:39;35.73;32.37;39.10;;
69616;Laerm;56822;52.516;4.708;2022-07-30T00:19:50;34.89;32.32;38.22;;
69616;Laerm;56822;52.516;4.708;2022-07-30T00:20:00;34.11;31.68;36.67;;
69616;Laerm;56822;52.516;4.708;2022-07-30T00:20:10;35.01;32.18;41.35;;
69616;Laerm;56822;52.516;4.708;2022-07-30T00:20:21;36.45;34.01;38.74;;
69616;Laerm;56822;52.516;4.708;2022-07-30T00:20:31;36.40;33.80;38.41;;
69616;Laerm;56822;52.516;4.708;2022-07-30T00:20:41;38.76;36.02;41.15;;
69616;Laerm;56822;52.516;4.708;2022-07-30T00:20:52;39.28;36.29;42.15;;
69616;Laerm;56822;52.516;4.708;2022-07-30T00:21:02;37.49;34.46;39.82;;
69616;Laerm;56822;52.516;4.708;2022-07-30T00:21:12;42.43;33.01;61.20;;
69616;Laerm;56822;52.516;4.708;2022-07-30T00:21:22;33.66;31.28;40.58;;
69616;Laerm;56822;52.516;4.708;2022-07-30T00:21:33;34.83;30.73;49.44;;
69616;Laerm;56822;52.516;4.708;2022-07-30T00:21:43;37.54;31.97;56.15;;
69616;Laerm;56822;52.516;4.708;2022-07-30T00:21:53;35.44;32.78;45.15;;
69616;Laerm;56822;52.516;4.708;2022-07-30T00:22:04;33.89;30.69;38.25;;
69616;Laerm;56822;52.516;4.708;2022-07-30T00:22:14;34.80;31.65;50.67;;
69616;Laerm;56822;52.516;4.708;2022-07-30T00:22:24;32.22;29.65;37.20;;
69616;Laerm;56822;52.516;4.708;2022-07-30T00:22:35;32.63;30.09;35.73;;
69616;Laerm;56822;52.516;4.708;2022-07-30T00:22:45;34.29;32.56;36.60;;
69616;Laerm;56822;52.516;4.708;2022-07-30T00:22:55;36.13;33.36;38.49;;
69616;Laerm;56822;52.516;4.708;2022-07-30T00:23:06;37.67;35.31;40.12;;
69616;Laerm;56822;52.516;4.708;2022-07-30T00:23:16;35.82;32.94;41.56;;
69616;Laerm;56822;52.516;4.708;2022-07-30T00:23:26;38.91;35.28;42.58;;
69616;Laerm;56822;52.516;4.708;2022-07-30T00:23:37;37.67;34.41;40.45;;
69616;Laerm;56822;52.516;4.708;2022-07-30T00:23:47;39.00;34.13;43.17;;
69616;Laerm;56822;52.516;4.708;2022-07-30T00:23:57;40.73;30.85;54.19;;
69616;Laerm;56822;52.516;4.708;2022-07-30T00:24:08;40.51;30.37;51.36;;
69616;Laerm;56822;52.516;4.708;2022-07-30T00:24:18;36.47;32.28;41.73;;
69616;Laerm;56822;52.516;4.708;2022-07-30T00:24:28;37.57;33.05;42.90;;
69616;Laerm;56822;52.516;4.708;2022-07-30T00:24:39;37.05;33.66;40.81;;
69616;Laerm;56822;52.516;4.708;2022-07-30T00:24:49;34.96;31.79;38.41;;
69616;Laerm;56822;52.516;4.708;2022-07-30T00:24:59;34.43;31.52;38.72;;
69616;Laerm;56822;52.516;4.708;2022-07-30T00:25:09;35.70;32.51;39.23;;
69616;Laerm;56822;52.516;4.708;2022-07-30T00:25:20;35.66;32.87;39.38;;
69616;Laerm;56822;52.516;4.708;2022-07-30T00:25:30;37.05;34.38;40.73;;
69616;Laerm;56822;52.516;4.708;2022-07-30T00:25:40;35.36;31.68;38.89;;
69616;Laerm;56822;52.516;4.708;2022-07-30T00:25:51;36.51;34.10;38.71;;
69616;Laerm;56822;52.516;4.708;2022-07-30T00:26:01;36.08;32.73;49.10;;
69616;Laerm;56822;52.516;4.708;2022-07-30T00:26:11;37.74;33.11;45.14;;
69616;Laerm;56822;52.516;4.708;2022-07-30T00:26:22;37.44;33.02;42.58;;
69616;Laerm;56822;52.516;4.708;2022-07-30T00:26:32;36.18;32.67;40.40;;
69616;Laerm;56822;52.516;4.708;2022-07-30T00:26:42;38.03;32.97;41.63;;
69616;Laerm;56822;52.516;4.708;2022-07-30T00:26:53;39.52;34.26;44.06;;
69616;Laerm;56822;52.516;4.708;2022-07-30T00:27:03;38.13;32.92;43.30;;
69616;Laerm;56822;52.516;4.708;2022-07-30T00:27:13;37.15;31.93;41.91;;
69616;Laerm;56822;52.516;4.708;2022-07-30T00:27:24;36.43;31.48;45.62;;
69616;Laerm;56822;52.516;4.708;2022-07-30T00:27:34;38.70;32.35;46.32;;
69616;Laerm;56822;52.516;4.708;2022-07-30T00:27:47;36.03;32.82;41.35;;
69616;Laerm;56822;52.516;4.708;2022-07-30T00:27:57;37.18;32.72;40.83;;
69616;Laerm;56822;52.516;4.708;2022-07-30T00:28:07;39.33;35.33;45.64;;
69616;Laerm;56822;52.516;4.708;2022-07-30T00:28:18;40.76;35.21;47.72;;
69616;Laerm;56822;52.516;4.708;2022-07-30T00:28:28;39.69;34.05;44.66;;
69616;Laerm;56822;52.516;4.708;2022-07-30T00:28:38;38.42;32.62;43.76;;
69616;Laerm;56822;52.516;4.708;2022-07-30T00:28:49;39.84;33.90;46.18;;
69616;Laerm;56822;52.516;4.708;2022-07-30T00:28:59;36.83;32.51;44.16;;
69616;Laerm;56822;52.516;4.708;2022-07-30T00:29:09;38.35;32.38;49.16;;
69616;Laerm;56822;52.516;4.708;2022-07-30T00:29:19;39.08;32.70;46.48;;
69616;Laerm;56822;52.516;4.708;2022-07-30T00:29:30;37.68;32.98;44.74;;
69616;Laerm;56822;52.516;4.708;2022-07-30T00:29:40;36.25;32.95;39.49;;
69616;Laerm;56822;52.516;4.708;2022-07-30T00:29:51;35.88;32.21;39.65;;
69616;Laerm;56822;52.516;4.708;2022-07-30T00:30:01;37.02;33.21;42.07;;
69616;Laerm;56822;52.516;4.708;2022-07-30T00:30:12;41.96;33.29;50.56;;
69616;Laerm;56822;52.516;4.708;2022-07-30T00:30:22;38.12;33.42;45.15;;
69616;Laerm;56822;52.516;4.708;2022-07-30T00:30:33;39.23;33.08;45.15;;
69616;Laerm;56822;52.516;4.708;2022-07-30T00:30:43;39.65;35.02;44.44;;
69616;Laerm;56822;52.516;4.708;2022-07-30T00:30:53;38.73;35.20;44.08;;
69616;Laerm;56822;52.516;4.708;2022-07-30T00:31:04;41.05;34.27;47.45;;
69616;Laerm;56822;52.516;4.708;2022-07-30T00:31:14;40.97;35.07;47.99;;
69616;Laerm;56822;52.516;4.708;2022-07-30T00:31:24;39.30;33.49;45.08;;
69616;Laerm;56822;52.516;4.708;2022-07-30T00:31:35;38.74;34.63;43.48;;
69616;Laerm;56822;52.516;4.708;2022-07-30T00:31:45;41.60;35.66;45.66;;
69616;Laerm;56822;52.516;4.708;2022-07-30T00:31:55;40.10;35.83;44.65;;
69616;Laerm;56822;52.516;4.708;2022-07-30T00:32:06;39.49;35.18;46.49;;
69616;Laerm;56822;52.516;4.708;2022-07-30T00:32:16;39.39;34.16;48.11;;
69616;Laerm;56822;52.516;4.708;2022-07-30T00:32:26;37.27;33.60;43.18;;
69616;Laerm;56822;52.516;4.708;2022-07-30T00:32:37;40.21;35.07;45.06;;
69616;Laerm;56822;52.516;4.708;2022-07-30T00:32:47;38.67;36.20;41.80;;
69616;Laerm;56822;52.516;4.708;2022-07-30T00:32:57;41.87;35.78;48.34;;
69616;Laerm;56822;52.516;4.708;2022-07-30T00:33:07;39.71;34.92;46.51;;
69616;Laerm;56822;52.516;4.708;2022-07-30T00:33:18;39.80;32.50;47.76;;
69616;Laerm;56822;52.516;4.708;2022-07-30T00:33:28;40.80;33.40;49.51;;
69616;Laerm;56822;52.516;4.708;2022-07-30T00:33:38;40.01;34.55;46.15;;
69616;Laerm;56822;52.516;4.708;2022-07-30T00:33:48;38.90;34.62;45.78;;
69616;Laerm;56822;52.516;4.708;2022-07-30T00:33:59;38.88;34.48;47.81;;
69616;Laerm;56822;52.516;4.708;2022-07-30T00:34:09;36.66;33.89;40.89;;
69616;Laerm;56822;52.516;4.708;2022-07-30T00:34:21;38.25;34.57;43.83;;
69616;Laerm;56822;52.516;4.708;2022-07-30T00:34:32;38.52;34.56;42.46;;
69616;Laerm;56822;52.516;4.708;2022-07-30T00:34:42;36.80;31.83;42.84;;
69616;Laerm;56822;52.516;4.708;2022-07-30T00:34:52;35.82;31.46;41.52;;
69616;Laerm;56822;52.516;4.708;2022-07-30T00:35:03;38.44;32.90;43.94;;
69616;Laerm;56822;52.516;4.708;2022-07-30T00:35:13;36.50;31.55;41.30;;
69616;Laerm;56822;52.516;4.708;2022-07-30T00:35:23;36.50;31.27;44.31;;
69616;Laerm;56822;52.516;4.708;2022-07-30T00:35:34;33.74;29.72;37.77;;
69616;Laerm;56822;52.516;4.708;2022-07-30T00:35:44;32.46;29.60;36.40;;
69616;Laerm;56822;52.516;4.708;2022-07-30T00:35:54;35.66;31.00;41.58;;
69616;Laerm;56822;52.516;4.708;2022-07-30T00:36:05;33.71;30.28;37.79;;
69616;Laerm;56822;52.516;4.708;2022-07-30T00:36:15;31.51;29.42;34.13;;
69616;Laerm;56822;52.516;4.708;2022-07-30T00:36:25;31.32;28.95;33.54;;
69616;Laerm;56822;52.516;4.708;2022-07-30T00:36:36;31.31;29.31;32.76;;
69616;Laerm;56822;52.516;4.708;2022-07-30T00:36:46;31.52;29.67;34.18;;
69616;Laerm;56822;52.516;4.708;2022-07-30T00:36:56;33.53;30.56;37.65;;
69616;Laerm;56822;52.516;4.708;2022-07-30T00:37:07;35.08;32.54;37.92;;
69616;Laerm;56822;52.516;4.708;2022-07-30T00:37:17;35.09;31.84;39.33;;
69616;Laerm;56822;52.516;4.708;2022-07-30T00:37:27;37.08;30.90;44.21;;
69616;Laerm;56822;52.516;4.708;2022-07-30T00:37:38;37.56;32.77;42.14;;
69616;Laerm;56822;52.516;4.708;2022-07-30T00:37:48;35.59;32.53;40.34;;
69616;Laerm;56822;52.516;4.708;2022-07-30T00:37:58;34.43;31.15;37.86;;
69616;Laerm;56822;52.516;4.708;2022-07-30T00:38:09;35.29;31.30;40.46;;
69616;Laerm;56822;52.516;4.708;2022-07-30T00:38:19;33.70;30.04;38.03;;
69616;Laerm;56822;52.516;4.708;2022-07-30T00:38:29;34.47;29.54;40.91;;
69616;Laerm;56822;52.516;4.708;2022-07-30T00:38:39;37.72;32.71;43.66;;
69616;Laerm;56822;52.516;4.708;2022-07-30T00:38:50;37.96;30.59;45.00;;
69616;Laerm;56822;52.516;4.708;2022-07-30T00:39:00;33.79;29.91;38.86;;
69616;Laerm;56822;52.516;4.708;2022-07-30T00:39:11;32.98;29.73;39.27;;
69616;Laerm;56822;52.516;4.708;2022-07-30T00:39:21;32.13;30.14;35.23;;
69616;Laerm;56822;52.516;4.708;2022-07-30T00:39:31;37.23;32.18;43.16;;
69616;Laerm;56822;52.516;4.708;2022-07-30T00:39:42;36.98;32.50;42.92;;
69616;Laerm;56822;52.516;4.708;2022-07-30T00:39:52;39.18;34.24;44.48;;
69616;Laerm;56822;52.516;4.708;2022-07-30T00:40:03;37.11;33.11;46.01;;
69616;Laerm;56822;52.516;4.708;2022-07-30T00:40:13;36.00;31.56;39.86;;
69616;Laerm;56822;52.516;4.708;2022-07-30T00:40:23;37.29;31.41;42.20;;
69616;Laerm;56822;52.516;4.708;2022-07-30T00:40:34;37.69;32.47;41.52;;
69616;Laerm;56822;52.516;4.708;2022-07-30T00:40:47;36.09;31.83;39.71;;
69616;Laerm;56822;52.516;4.708;2022-07-30T00:40:57;38.35;34.54;44.27;;
69616;Laerm;56822;52.516;4.708;2022-07-30T00:41:07;35.29;30.61;38.76;;
69616;Laerm;56822;52.516;4.708;2022-07-30T00:41:18;34.28;31.32;37.63;;
69616;Laerm;56822;52.516;4.708;2022-07-30T00:41:28;37.00;32.48;41.04;;
69616;Laerm;56822;52.516;4.708;2022-07-30T00:41:54;35.00;31.00;40.41;;
69616;Laerm;56822;52.516;4.708;2022-07-30T00:42:05;35.92;31.83;41.28;;
69616;Laerm;56822;52.516;4.708;2022-07-30T00:42:15;36.15;32.85;40.38;;
69616;Laerm;56822;52.516;4.708;2022-07-30T00:42:36;41.05;34.71;47.71;;
69616;Laerm;56822;52.516;4.708;2022-07-30T00:42:46;36.04;32.08;40.01;;
69616;Laerm;56822;52.516;4.708;2022-07-30T00:42:57;33.24;30.78;42.57;;
69616;Laerm;56822;52.516;4.708;2022-07-30T00:43:07;35.50;31.03;44.67;;
69616;Laerm;56822;52.516;4.708;2022-07-30T00:43:17;36.46;32.07;43.97;;
69616;Laerm;56822;52.516;4.708;2022-07-30T00:43:28;37.51;32.16;41.84;;
69616;Laerm;56822;52.516;4.708;2022-07-30T00:43:38;36.74;29.95;47.18;;
69616;Laerm;56822;52.516;4.708;2022-07-30T00:43:49;37.43;32.40;41.71;;
69616;Laerm;56822;52.516;4.708;2022-07-30T00:43:59;39.18;35.49;41.94;;
69616;Laerm;56822;52.516;4.708;2022-07-30T00:44:09;38.72;33.55;42.42;;
69616;Laerm;56822;52.516;4.708;2022-07-30T00:44:19;37.33;32.30;41.67;;
69616;Laerm;56822;52.516;4.708;2022-07-30T00:44:30;35.59;30.18;40.98;;
69616;Laerm;56822;52.516;4.708;2022-07-30T00:44:40;34.69;30.12;38.34;;
69616;Laerm;56822;52.516;4.708;2022-07-30T00:44:51;35.38;31.15;38.27;;
69616;Laerm;56822;52.516;4.708;2022-07-30T00:45:02;37.16;33.55;41.15;;
69616;Laerm;56822;52.516;4.708;2022-07-30T00:45:13;37.32;34.09;41.33;;
69616;Laerm;56822;52.516;4.708;2022-07-30T00:45:23;36.35;32.27;40.64;;
69616;Laerm;56822;52.516;4.708;2022-07-30T00:45:34;35.92;31.30;39.60;;
69616;Laerm;56822;52.516;4.708;2022-07-30T00:45:44;35.76;31.31;42.02;;
69616;Laerm;56822;52.516;4.708;2022-07-30T00:45:55;32.60;29.31;39.24;;
69616;Laerm;56822;52.516;4.708;2022-07-30T00:46:05;32.82;29.68;37.20;;
69616;Laerm;56822;52.516;4.708;2022-07-30T00:46:15;39.87;32.34;52.12;;
69616;Laerm;56822;52.516;4.708;2022-07-30T00:46:26;36.35;31.14;41.34;;
69616;Laerm;56822;52.516;4.708;2022-07-30T00:46:36;37.43;32.69;41.36;;
69616;Laerm;56822;52.516;4.708;2022-07-30T00:46:46;33.90;31.33;36.62;;
69616;Laerm;56822;52.516;4.708;2022-07-30T00:46:56;34.90;30.25;40.27;;
69616;Laerm;56822;52.516;4.708;2022-07-30T00:47:07;33.69;29.76;38.26;;
69616;Laerm;56822;52.516;4.708;2022-07-30T00:47:17;32.49;29.59;38.13;;
69616;Laerm;56822;52.516;4.708;2022-07-30T00:47:28;33.50;29.92;44.28;;
69616;Laerm;56822;52.516;4.708;2022-07-30T00:47:38;34.21;32.14;38.11;;
69616;Laerm;56822;52.516;4.708;2022-07-30T00:47:49;35.56;32.16;41.19;;
69616;Laerm;56822;52.516;4.708;2022-07-30T00:47:59;37.59;33.09;42.81;;
69616;Laerm;56822;52.516;4.708;2022-07-30T00:48:11;37.13;32.17;41.05;;
69616;Laerm;56822;52.516;4.708;2022-07-30T00:48:21;34.38;31.67;38.56;;
69616;Laerm;56822;52.516;4.708;2022-07-30T00:48:31;32.37;31.15;34.00;;
69616;Laerm;56822;52.516;4.708;2022-07-30T00:48:42;34.09;31.47;37.65;;
69616;Laerm;56822;52.516;4.708;2022-07-30T00:48:52;34.93;31.62;39.46;;
69616;Laerm;56822;52.516;4.708;2022-07-30T00:49:02;34.83;32.07;38.65;;
69616;Laerm;56822;52.516;4.708;2022-07-30T00:49:13;36.76;32.33;41.23;;
69616;Laerm;56822;52.516;4.708;2022-07-30T00:49:23;36.15;31.87;40.72;;
69616;Laerm;56822;52.516;4.708;2022-07-30T00:49:34;34.85;32.20;39.97;;
69616;Laerm;56822;52.516;4.708;2022-07-30T00:49:44;38.32;33.80;42.81;;
69616;Laerm;56822;52.516;4.708;2022-07-30T00:49:55;36.39;31.43;40.03;;
69616;Laerm;56822;52.516;4.708;2022-07-30T00:50:06;35.86;32.48;40.36;;
69616;Laerm;56822;52.516;4.708;2022-07-30T00:50:17;34.07;29.95;39.28;;
69616;Laerm;56822;52.516;4.708;2022-07-30T00:50:27;33.15;29.10;39.38;;
69616;Laerm;56822;52.516;4.708;2022-07-30T00:50:38;34.23;29.25;40.79;;
69616;Laerm;56822;52.516;4.708;2022-07-30T00:50:48;31.39;29.27;37.44;;
69616;Laerm;56822;52.516;4.708;2022-07-30T00:50:58;34.72;29.76;40.45;;
69616;Laerm;56822;52.516;4.708;2022-07-30T00:51:09;34.57;31.11;37.25;;
69616;Laerm;56822;52.516;4.708;2022-07-30T00:51:19;34.21;30.62;37.78;;
69616;Laerm;56822;52.516;4.708;2022-07-30T00:51:29;34.73;32.26;37.80;;
69616;Laerm;56822;52.516;4.708;2022-07-30T00:51:40;33.61;31.18;35.85;;
69616;Laerm;56822;52.516;4.708;2022-07-30T00:51:50;34.23;31.70;36.17;;
69616;Laerm;56822;52.516;4.708;2022-07-30T00:52:01;35.04;32.41;37.23;;
69616;Laerm;56822;52.516;4.708;2022-07-30T00:52:11;36.16;33.31;39.25;;
69616;Laerm;56822;52.516;4.708;2022-07-30T00:52:22;37.53;33.25;41.59;;
69616;Laerm;56822;52.516;4.708;2022-07-30T00:52:32;35.51;33.22;38.31;;
69616;Laerm;56822;52.516;4.708;2022-07-30T00:52:43;35.99;32.77;38.77;;
69616;Laerm;56822;52.516;4.708;2022-07-30T00:52:53;35.46;32.82;39.06;;
69616;Laerm;56822;52.516;4.708;2022-07-30T00:53:03;33.29;30.35;37.05;;
69616;Laerm;56822;52.516;4.708;2022-07-30T00:53:14;34.57;30.38;39.70;;
69616;Laerm;56822;52.516;4.708;2022-07-30T00:53:24;35.86;30.65;41.39;;
69616;Laerm;56822;52.516;4.708;2022-07-30T00:53:34;33.97;30.28;38.04;;
69616;Laerm;56822;52.516;4.708;2022-07-30T00:53:45;36.58;32.64;40.99;;
69616;Laerm;56822;52.516;4.708;2022-07-30T00:53:55;39.68;36.20;42.82;;
69616;Laerm;56822;52.516;4.708;2022-07-30T00:54:05;36.54;31.48;40.50;;
69616;Laerm;56822;52.516;4.708;2022-07-30T00:54:16;32.79;30.63;34.74;;
69616;Laerm;56822;52.516;4.708;2022-07-30T00:54:27;36.06;31.38;40.50;;
69616;Laerm;56822;52.516;4.708;2022-07-30T00:54:37;36.73;32.08;40.88;;
69616;Laerm;56822;52.516;4.708;2022-07-30T00:54:47;37.07;32.37;42.11;;
69616;Laerm;56822;52.516;4.708;2022-07-30T00:54:58;39.36;35.58;43.04;;
69616;Laerm;56822;52.516;4.708;2022-07-30T00:55:09;37.75;34.24;41.94;;
69616;Laerm;56822;52.516;4.708;2022-07-30T00:55:20;36.52;33.60;41.42;;
69616;Laerm;56822;52.516;4.708;2022-07-30T00:55:30;37.57;34.40;41.45;;
69616;Laerm;56822;52.516;4.708;2022-07-30T00:55:41;38.40;35.42;41.87;;
69616;Laerm;56822;52.516;4.708;2022-07-30T00:55:51;38.45;34.97;42.59;;
69616;Laerm;56822;52.516;4.708;2022-07-30T00:56:01;38.04;34.37;42.35;;
69616;Laerm;56822;52.516;4.708;2022-07-30T00:56:12;37.85;33.49;40.49;;
69616;Laerm;56822;52.516;4.708;2022-07-30T00:56:22;36.96;32.54;40.17;;
69616;Laerm;56822;52.516;4.708;2022-07-30T00:56:32;36.00;32.46;39.27;;
69616;Laerm;56822;52.516;4.708;2022-07-30T00:56:42;35.55;31.74;40.28;;
69616;Laerm;56822;52.516;4.708;2022-07-30T00:56:53;36.10;32.67;44.68;;
69616;Laerm;56822;52.516;4.708;2022-07-30T00:57:03;34.72;30.78;37.70;;
69616;Laerm;56822;52.516;4.708;2022-07-30T00:57:14;38.45;33.06;44.20;;
69616;Laerm;56822;52.516;4.708;2022-07-30T00:57:24;35.33;31.30;39.49;;
69616;Laerm;56822;52.516;4.708;2022-07-30T00:57:35;34.93;30.68;39.35;;
69616;Laerm;56822;52.516;4.708;2022-07-30T00:57:45;35.84;30.72;39.45;;
69616;Laerm;56822;52.516;4.708;2022-07-30T00:57:55;34.85;32.03;39.40;;
69616;Laerm;56822;52.516;4.708;2022-07-30T00:58:06;37.37;32.08;46.76;;
69616;Laerm;56822;52.516;4.708;2022-07-30T00:58:16;40.75;35.72;46.92;;
69616;Laerm;56822;52.516;4.708;2022-07-30T00:58:26;34.82;31.17;39.34;;
69616;Laerm;56822;52.516;4.708;2022-07-30T00:58:36;34.60;31.50;46.70;;